Time;durP1;ratioP1;P1;durP2;ratioP2;P2;SDS_P1;SDS_P2;PMS_P1;PMS_P2;Temp;Humidity;BMP_temperature;BMP_pressure;BME280_temperature;BME280_humidity;BME280_pressure;Samples;Min_cycle;Max_cycle;Signal;HPM_P1;HPM_P2
2021/08/29 00:01:57;;;;;;;1.80;1.70;;;13.10;99.90;;;;;;4924836;29;20407;-66
2021/08/29 00:04:23;;;;;;;1.70;1.60;;;13.10;99.90;;;;;;4919086;29;20473;-66
2021/08/29 00:06:48;;;;;;;3.00;2.05;;;13.00;99.90;;;;;;4887060;29;20412;-66
2021/08/29 00:09:14;;;;;;;1.60;1.50;;;13.00;99.90;;;;;;4910430;29;20482;-66
2021/08/29 00:11:40;;;;;;;1.70;1.60;;;13.00;99.90;;;;;;4910860;29;20415;-66
2021/08/29 00:14:05;;;;;;;1.83;1.63;;;13.00;99.90;;;;;;4906076;29;20991;-64
2021/08/29 00:16:31;;;;;;;2.10;1.90;;;13.10;99.90;;;;;;4901912;29;20399;-66
2021/08/29 00:18:57;;;;;;;2.20;2.05;;;13.10;99.90;;;;;;4909678;29;20431;-67
2021/08/29 00:21:22;;;;;;;1.80;1.70;;;13.10;99.90;;;;;;4887184;29;20397;-65
2021/08/29 00:23:48;;;;;;;1.92;1.73;;;13.10;99.90;;;;;;4895623;29;20412;-67
2021/08/29 00:26:14;;;;;;;1.90;1.80;;;13.10;99.90;;;;;;4878512;29;20408;-66
2021/08/29 00:28:39;;;;;;;2.42;1.90;;;13.10;99.90;;;;;;4926694;29;20406;-67
2021/08/29 00:31:05;;;;;;;1.97;1.87;;;13.10;99.90;;;;;;4894833;29;20439;-65
2021/08/29 00:33:31;;;;;;;1.70;1.60;;;13.10;99.90;;;;;;4892883;29;20396;-66
2021/08/29 00:35:57;;;;;;;1.92;1.77;;;13.10;99.90;;;;;;4897483;29;20822;-66
2021/08/29 00:38:22;;;;;;;1.90;1.80;;;13.10;99.90;;;;;;4909651;29;20399;-66
2021/08/29 00:40:51;;;;;;;1.77;1.67;;;13.10;99.90;;;;;;4894375;29;20410;-66
2021/08/29 00:43:18;;;;;;;1.70;1.60;;;13.10;99.90;;;;;;4895153;29;20478;-66
2021/08/29 00:45:44;;;;;;;1.70;1.60;;;13.00;99.90;;;;;;4892901;29;20893;-66
2021/08/29 00:48:10;;;;;;;1.60;1.50;;;13.00;99.90;;;;;;4912193;29;20391;-65
2021/08/29 00:50:37;;;;;;;1.60;1.50;;;13.00;99.90;;;;;;4913796;29;21114;-66
2021/08/29 00:53:04;;;;;;;1.70;1.60;;;12.90;99.90;;;;;;4912176;29;20411;-64
2021/08/29 00:55:30;;;;;;;1.38;1.30;;;12.80;99.90;;;;;;4928885;29;20479;-64
2021/08/29 00:57:56;;;;;;;1.58;1.48;;;12.80;99.90;;;;;;4913690;29;20415;-65
2021/08/29 01:00:22;;;;;;;1.20;1.20;;;12.80;99.90;;;;;;4912446;29;20970;-65
2021/08/29 01:02:53;;;;;;;1.30;1.30;;;12.80;99.90;;;;;;4912464;29;20428;-65
2021/08/29 01:05:28;;;;;;;1.40;1.30;;;12.80;99.90;;;;;;4881138;29;20467;-68
2021/08/29 01:08:12;;;;;;;1.70;1.60;;;12.90;99.90;;;;;;4880341;29;20472;-66
2021/08/29 01:10:50;;;;;;;1.27;1.27;;;12.90;99.90;;;;;;4879201;29;20920;-65
2021/08/29 01:13:23;;;;;;;1.52;1.42;;;12.90;99.90;;;;;;4890017;29;20410;-65
2021/08/29 01:15:48;;;;;;;1.63;1.52;;;12.90;99.90;;;;;;4913921;29;20396;-65
2021/08/29 01:18:14;;;;;;;1.60;1.50;;;13.00;99.90;;;;;;4897555;29;20396;-64
2021/08/29 01:20:50;;;;;;;1.35;1.30;;;13.00;99.90;;;;;;4897766;29;20774;-65
2021/08/29 01:23:16;;;;;;;1.30;1.30;;;13.00;99.90;;;;;;4897844;29;20402;-65
2021/08/29 01:25:48;;;;;;;1.40;1.30;;;13.00;99.90;;;;;;4897875;29;20388;-66
2021/08/29 01:28:15;;;;;;;1.20;1.20;;;13.00;99.90;;;;;;4897284;29;20406;-66
2021/08/29 01:30:45;;;;;;;1.40;1.30;;;13.00;99.90;;;;;;4896808;29;20392;-64
2021/08/29 01:33:13;;;;;;;1.30;1.30;;;13.10;99.90;;;;;;4896447;29;20436;-65
2021/08/29 01:35:49;;;;;;;1.30;1.20;;;13.00;99.90;;;;;;4880689;29;20412;-65
2021/08/29 01:38:15;;;;;;;1.45;1.40;;;13.00;99.90;;;;;;4894013;29;20428;-64
2021/08/29 01:40:41;;;;;;;1.40;1.30;;;12.90;99.90;;;;;;4896122;29;20431;-66
2021/08/29 01:43:06;;;;;;;1.40;1.30;;;12.90;99.90;;;;;;4913258;29;20434;-64
2021/08/29 01:45:34;;;;;;;1.25;1.23;;;13.00;99.90;;;;;;4883098;29;20405;-65
2021/08/29 01:47:59;;;;;;;1.40;1.30;;;12.90;99.90;;;;;;4878517;29;20456;-66
2021/08/29 01:50:34;;;;;;;1.40;1.30;;;12.90;99.90;;;;;;4879656;29;20420;-64
2021/08/29 01:53:05;;;;;;;1.23;1.23;;;12.90;99.90;;;;;;4879314;29;20405;-64
2021/08/29 01:55:49;;;;;;;1.50;1.40;;;12.90;99.90;;;;;;4879144;29;20408;-65
2021/08/29 01:58:38;;;;;;;1.35;1.27;;;12.90;99.90;;;;;;4909119;29;20504;-64
2021/08/29 02:01:09;;;;;;;1.40;1.30;;;12.90;99.90;;;;;;4877052;29;20576;-65
2021/08/29 02:03:35;;;;;;;1.30;1.30;;;12.90;99.90;;;;;;4892284;29;20409;-65
2021/08/29 02:06:24;;;;;;;1.30;1.25;;;12.90;99.90;;;;;;4897813;29;20402;-66
2021/08/29 02:09:03;;;;;;;1.50;1.40;;;12.90;99.90;;;;;;4913035;29;20902;-63
2021/08/29 02:11:43;;;;;;;1.70;1.60;;;12.90;99.90;;;;;;4896340;29;20430;-64
2021/08/29 02:14:15;;;;;;;1.58;1.48;;;12.90;99.90;;;;;;4879447;29;20420;-65
2021/08/29 02:16:42;;;;;;;1.75;1.65;;;12.80;99.90;;;;;;4877936;29;20401;-69
2021/08/29 02:19:09;;;;;;;1.50;1.40;;;12.80;99.90;;;;;;4878291;29;20967;-69
2021/08/29 02:21:34;;;;;;;1.50;1.40;;;12.80;99.90;;;;;;4880014;29;20905;-66
2021/08/29 02:24:03;;;;;;;1.57;1.47;;;12.80;99.90;;;;;;4897092;29;20395;-65
2021/08/29 02:26:28;;;;;;;1.65;1.33;;;12.80;99.90;;;;;;4895655;29;20486;-65
2021/08/29 02:29:03;;;;;;;1.50;1.40;;;12.80;99.90;;;;;;4913402;29;20419;-65
2021/08/29 02:31:29;;;;;;;1.60;1.50;;;12.80;99.90;;;;;;4895815;29;20414;-65
2021/08/29 02:33:55;;;;;;;1.47;1.37;;;12.80;99.90;;;;;;4877551;29;20393;-65
2021/08/29 02:36:22;;;;;;;1.42;1.38;;;12.90;99.90;;;;;;4884034;29;20401;-65
2021/08/29 02:38:51;;;;;;;1.30;1.20;;;12.90;99.90;;;;;;4878084;29;21012;-65
2021/08/29 02:41:18;;;;;;;1.10;1.10;;;12.90;99.90;;;;;;4877451;29;20393;-63
2021/08/29 02:43:44;;;;;;;1.42;1.40;;;12.90;99.90;;;;;;4876706;29;21163;-66
2021/08/29 02:46:10;;;;;;;1.50;1.40;;;13.00;99.90;;;;;;4876992;29;20409;-65
2021/08/29 02:48:35;;;;;;;1.77;1.67;;;13.00;99.90;;;;;;4876419;29;20391;-64
2021/08/29 02:51:02;;;;;;;1.98;1.88;;;13.00;99.90;;;;;;4876803;29;20436;-64
2021/08/29 02:53:28;;;;;;;1.92;1.83;;;13.10;99.90;;;;;;4876718;29;20428;-66
2021/08/29 02:55:55;;;;;;;2.20;2.10;;;13.10;99.90;;;;;;4861441;29;20561;-64
2021/08/29 02:58:22;;;;;;;2.67;2.08;;;13.10;99.90;;;;;;4893875;29;20412;-65
2021/08/29 03:01:07;;;;;;;2.53;2.20;;;13.10;99.90;;;;;;4889113;29;20412;-65
2021/08/29 03:04:05;;;;;;;2.10;1.90;;;13.10;99.90;;;;;;4870814;29;20425;-66
2021/08/29 03:06:34;;;;;;;2.60;2.40;;;13.10;99.90;;;;;;4908477;29;20404;-65
2021/08/29 03:09:03;;;;;;;2.70;2.47;;;13.10;99.90;;;;;;4910301;29;20411;-66
2021/08/29 03:11:29;;;;;;;2.63;2.42;;;13.10;99.90;;;;;;4846322;29;20417;-65
2021/08/29 03:13:54;;;;;;;3.17;2.40;;;13.10;99.90;;;;;;4908152;29;20408;-65
2021/08/29 03:16:21;;;;;;;3.42;3.13;;;13.20;99.90;;;;;;4874580;29;20460;-67
2021/08/29 03:18:48;;;;;;;3.70;2.92;;;13.20;99.90;;;;;;4876326;29;20548;-66
2021/08/29 03:21:39;;;;;;;3.10;2.70;;;13.30;99.90;;;;;;4884484;29;20397;-66
2021/08/29 03:24:06;;;;;;;3.05;2.60;;;13.30;99.90;;;;;;4891392;29;20415;-66
2021/08/29 03:26:32;;;;;;;2.72;2.53;;;13.30;99.90;;;;;;4913670;29;20463;-66
2021/08/29 03:29:08;;;;;;;3.40;3.10;;;13.40;99.90;;;;;;4886838;29;20404;-66
2021/08/29 03:31:34;;;;;;;3.07;2.73;;;13.40;99.90;;;;;;4894378;29;20462;-67
2021/08/29 03:33:59;;;;;;;3.78;3.38;;;13.50;99.90;;;;;;4896602;29;20415;-66
2021/08/29 03:36:26;;;;;;;3.63;3.20;;;13.50;99.90;;;;;;4902508;29;21127;-67
2021/08/29 03:38:52;;;;;;;3.30;2.95;;;13.40;99.90;;;;;;4890768;29;20425;-67
2021/08/29 03:41:18;;;;;;;5.13;3.43;;;13.40;99.90;;;;;;4894399;29;20392;-66
2021/08/29 03:43:46;;;;;;;3.57;2.83;;;13.40;99.90;;;;;;4894662;29;20406;-66
2021/08/29 03:46:14;;;;;;;3.78;3.25;;;13.40;99.90;;;;;;4909065;29;20412;-65
2021/08/29 03:48:40;;;;;;;3.65;3.28;;;13.50;99.90;;;;;;4910208;29;20399;-66
2021/08/29 03:51:06;;;;;;;3.92;3.40;;;13.50;99.90;;;;;;4911252;29;20789;-66
2021/08/29 03:53:32;;;;;;;3.40;3.10;;;13.50;99.90;;;;;;4893704;29;20917;-66
2021/08/29 03:56:01;;;;;;;4.20;3.80;;;13.50;99.90;;;;;;4909963;29;20426;-67
2021/08/29 03:58:27;;;;;;;4.85;3.92;;;13.50;99.90;;;;;;4894694;29;20486;-69
2021/08/29 04:00:53;;;;;;;4.97;3.75;;;13.50;99.90;;;;;;4909328;29;20408;-66
2021/08/29 04:03:19;;;;;;;4.20;3.70;;;13.50;99.90;;;;;;4924576;29;20431;-66
2021/08/29 04:06:03;;;;;;;4.40;3.67;;;13.60;99.90;;;;;;4907239;29;20404;-66
2021/08/29 04:08:36;;;;;;;3.53;3.22;;;13.60;99.90;;;;;;4894909;29;20399;-66
2021/08/29 04:11:02;;;;;;;6.40;4.03;;;13.60;99.90;;;;;;4863755;29;20434;-67
2021/08/29 04:13:31;;;;;;;4.63;4.13;;;13.60;99.90;;;;;;4903112;29;20404;-66
2021/08/29 04:16:02;;;;;;;3.65;3.25;;;13.60;99.90;;;;;;4925229;29;20394;-66
2021/08/29 04:18:30;;;;;;;4.30;3.88;;;13.60;99.90;;;;;;4912811;29;20439;-67
2021/08/29 04:20:56;;;;;;;4.57;3.50;;;13.60;99.90;;;;;;4897507;29;20518;-66
2021/08/29 04:23:22;;;;;;;4.28;3.60;;;13.60;99.90;;;;;;4909772;29;20839;-66
2021/08/29 04:25:48;;;;;;;5.40;4.17;;;13.60;99.90;;;;;;4896163;29;20403;-66
2021/08/29 04:28:14;;;;;;;5.90;4.55;;;13.70;99.90;;;;;;4894823;29;20495;-66
2021/08/29 04:30:41;;;;;;;6.47;4.25;;;13.70;99.90;;;;;;4893469;29;20966;-67
2021/08/29 04:33:06;;;;;;;3.80;3.50;;;13.70;99.90;;;;;;4880525;29;20508;-67
2021/08/29 04:35:51;;;;;;;4.53;3.90;;;13.70;99.90;;;;;;4908674;29;20454;-67
2021/08/29 04:38:16;;;;;;;7.63;4.68;;;13.80;99.90;;;;;;4896880;29;20411;-67
2021/08/29 04:40:42;;;;;;;5.43;4.23;;;13.70;99.90;;;;;;4894471;29;20415;-66
2021/08/29 04:43:08;;;;;;;4.80;4.30;;;13.80;99.90;;;;;;4898317;29;20407;-67
2021/08/29 04:45:34;;;;;;;6.50;4.53;;;13.70;99.90;;;;;;4907066;29;20404;-66
2021/08/29 04:48:07;;;;;;;4.85;4.30;;;13.70;99.90;;;;;;4912913;29;20403;-66
2021/08/29 04:50:33;;;;;;;4.95;3.92;;;13.80;99.90;;;;;;4913251;29;20743;-66
2021/08/29 04:53:00;;;;;;;4.80;4.32;;;13.80;99.90;;;;;;4897274;29;20498;-66
2021/08/29 04:55:27;;;;;;;5.32;3.97;;;13.90;99.90;;;;;;4897291;29;20404;-66
2021/08/29 04:57:52;;;;;;;6.40;4.70;;;13.90;99.90;;;;;;4913200;29;20465;-66
2021/08/29 05:00:18;;;;;;;5.50;4.63;;;13.90;99.90;;;;;;4911986;29;20443;-66
2021/08/29 05:02:47;;;;;;;4.82;4.18;;;13.90;99.90;;;;;;4898024;29;20403;-66
2021/08/29 05:05:13;;;;;;;8.27;4.60;;;13.90;99.90;;;;;;4913398;29;20834;-66
2021/08/29 05:07:39;;;;;;;6.13;4.43;;;14.00;99.90;;;;;;4912070;29;20416;-66
2021/08/29 05:10:05;;;;;;;4.65;4.25;;;14.00;99.90;;;;;;4897322;29;20803;-66
2021/08/29 05:12:42;;;;;;;5.53;4.47;;;14.10;99.90;;;;;;4883696;29;21081;-66
2021/08/29 05:15:08;;;;;;;5.28;4.78;;;14.10;99.90;;;;;;4896394;29;20520;-68
2021/08/29 05:17:34;;;;;;;6.82;5.22;;;14.10;99.90;;;;;;4881439;29;21082;-66
2021/08/29 05:19:59;;;;;;;6.63;4.50;;;14.10;99.90;;;;;;4896398;29;20416;-67
2021/08/29 05:22:44;;;;;;;7.20;4.88;;;14.20;99.90;;;;;;4889882;29;20397;-66
2021/08/29 05:25:29;;;;;;;6.20;4.70;;;14.20;99.90;;;;;;4896437;29;20402;-66
2021/08/29 05:27:55;;;;;;;6.33;5.70;;;14.20;99.90;;;;;;4892410;29;20978;-66
2021/08/29 05:30:21;;;;;;;5.87;4.83;;;14.20;99.90;;;;;;4861684;29;20424;-66
2021/08/29 05:32:47;;;;;;;5.65;5.15;;;14.30;99.90;;;;;;4877812;29;20405;-66
2021/08/29 05:35:13;;;;;;;4.80;4.30;;;14.30;99.90;;;;;;4878503;29;20405;-67
2021/08/29 05:37:38;;;;;;;6.13;4.97;;;14.30;99.90;;;;;;4878413;29;20401;-66
2021/08/29 05:40:27;;;;;;;5.45;4.95;;;14.40;99.90;;;;;;4907655;29;20559;-68
2021/08/29 05:43:27;;;;;;;6.07;5.17;;;14.40;99.90;;;;;;4916201;29;21066;-67
2021/08/29 05:45:53;;;;;;;7.63;5.15;;;14.40;99.90;;;;;;4908461;29;20444;-66
2021/08/29 05:48:19;;;;;;;4.80;4.30;;;14.40;99.90;;;;;;4912469;29;20978;-66
2021/08/29 05:50:44;;;;;;;5.32;4.68;;;14.40;99.90;;;;;;4927856;29;20442;-66
2021/08/29 05:53:10;;;;;;;5.10;4.60;;;14.50;99.90;;;;;;4911837;29;20411;-66
2021/08/29 05:55:36;;;;;;;4.70;4.30;;;14.50;99.90;;;;;;4912903;29;20400;-66
2021/08/29 05:58:02;;;;;;;4.70;4.20;;;14.60;99.90;;;;;;4911598;29;21025;-66
2021/08/29 06:00:28;;;;;;;4.67;4.27;;;14.60;99.90;;;;;;4911485;29;20470;-66
2021/08/29 06:02:58;;;;;;;4.45;4.05;;;14.60;99.90;;;;;;4897579;29;20479;-66
2021/08/29 06:05:24;;;;;;;4.47;4.03;;;14.60;99.90;;;;;;4879386;29;20495;-66
2021/08/29 06:08:01;;;;;;;4.47;3.72;;;14.70;99.90;;;;;;4894928;29;20422;-67
2021/08/29 06:10:28;;;;;;;3.75;3.45;;;14.80;99.90;;;;;;4896441;29;20404;-66
2021/08/29 06:12:54;;;;;;;4.20;3.80;;;14.80;99.90;;;;;;4897063;29;20553;-66
2021/08/29 06:15:19;;;;;;;5.47;3.70;;;14.90;99.90;;;;;;4894886;29;20408;-66
2021/08/29 06:17:45;;;;;;;4.50;4.10;;;14.90;99.90;;;;;;4911373;29;20458;-68
2021/08/29 06:20:11;;;;;;;4.00;3.50;;;14.90;99.90;;;;;;4896445;29;20413;-66
2021/08/29 06:22:37;;;;;;;5.05;4.63;;;15.00;99.90;;;;;;4903479;29;20811;-66
2021/08/29 06:25:23;;;;;;;4.25;3.85;;;15.00;99.90;;;;;;4914570;29;20403;-65
2021/08/29 06:28:07;;;;;;;4.55;4.03;;;15.00;99.90;;;;;;4895272;29;20420;-66
2021/08/29 06:30:51;;;;;;;4.05;3.70;;;15.00;99.90;;;;;;4897743;29;20417;-67
2021/08/29 06:33:37;;;;;;;4.80;4.30;;;15.00;99.90;;;;;;4886886;29;20398;-66
2021/08/29 06:36:06;;;;;;;4.77;4.37;;;15.10;99.90;;;;;;4906858;29;20404;-67
2021/08/29 06:38:32;;;;;;;4.53;3.97;;;15.10;99.90;;;;;;4878437;29;20410;-66
2021/08/29 06:40:58;;;;;;;4.88;4.28;;;15.10;99.90;;;;;;4895492;29;20415;-67
2021/08/29 06:43:24;;;;;;;5.25;4.35;;;15.20;99.90;;;;;;4876972;29;20507;-67
2021/08/29 06:45:55;;;;;;;4.90;3.27;;;15.20;99.90;;;;;;4889680;29;20406;-66
2021/08/29 06:48:40;;;;;;;3.80;3.50;;;15.30;99.90;;;;;;4901138;29;20438;-66
2021/08/29 06:51:28;;;;;;;6.22;4.57;;;15.40;99.90;;;;;;4914064;29;20398;-66
2021/08/29 06:54:14;;;;;;;4.40;4.00;;;15.50;99.90;;;;;;4900815;29;21210;-66
2021/08/29 06:56:58;;;;;;;4.07;3.67;;;15.50;99.90;;;;;;4910572;29;20395;-65
2021/08/29 06:59:26;;;;;;;4.18;3.78;;;15.60;99.90;;;;;;4895963;29;20745;-66
2021/08/29 07:01:55;;;;;;;4.07;3.70;;;15.60;99.90;;;;;;4895699;29;20503;-66
2021/08/29 07:04:21;;;;;;;4.33;3.60;;;15.70;99.90;;;;;;4905356;29;20479;-66
2021/08/29 07:06:47;;;;;;;4.40;4.00;;;15.80;99.90;;;;;;4899919;29;20411;-67
2021/08/29 07:09:32;;;;;;;4.03;3.58;;;15.90;99.90;;;;;;4900775;29;20408;-67
2021/08/29 07:11:57;;;;;;;4.00;3.65;;;15.90;99.90;;;;;;4894831;29;20797;-67
2021/08/29 07:14:46;;;;;;;3.78;3.47;;;16.00;99.90;;;;;;4900157;29;20405;-65
2021/08/29 07:17:14;;;;;;;4.20;3.80;;;16.10;99.90;;;;;;4894359;29;20403;-66
2021/08/29 07:19:40;;;;;;;3.40;3.05;;;16.20;99.90;;;;;;4895901;29;20407;-65
2021/08/29 07:22:24;;;;;;;3.97;3.55;;;16.20;99.90;;;;;;4890952;29;20409;-65
2021/08/29 07:25:09;;;;;;;3.70;3.40;;;16.40;99.90;;;;;;4912415;29;20422;-64
2021/08/29 07:27:54;;;;;;;3.63;3.33;;;16.50;99.90;;;;;;4902840;29;20408;-66
2021/08/29 07:30:38;;;;;;;3.80;3.50;;;16.60;99.90;;;;;;4920974;29;20446;-66
2021/08/29 07:33:12;;;;;;;4.00;3.70;;;16.80;99.90;;;;;;4896492;29;20422;-66
2021/08/29 07:35:46;;;;;;;3.25;2.90;;;16.90;99.90;;;;;;4908677;29;20986;-66
2021/08/29 07:38:48;;;;;;;3.95;3.65;;;17.00;99.90;;;;;;4902036;29;20520;-66
2021/08/29 07:41:13;;;;;;;3.80;3.42;;;17.10;99.90;;;;;;4910191;29;20397;-67
2021/08/29 07:43:39;;;;;;;3.90;3.50;;;17.20;99.90;;;;;;4910459;29;20408;-65
2021/08/29 07:46:07;;;;;;;3.60;3.30;;;17.40;99.90;;;;;;4892529;29;20477;-66
2021/08/29 07:48:33;;;;;;;3.90;3.53;;;17.50;99.90;;;;;;4876082;29;20532;-68
2021/08/29 07:50:59;;;;;;;3.72;3.17;;;17.60;99.90;;;;;;4877095;29;20419;-66
2021/08/29 07:53:30;;;;;;;3.22;2.92;;;17.70;99.90;;;;;;4876409;29;20416;-67
2021/08/29 07:56:15;;;;;;;3.42;3.05;;;17.90;99.90;;;;;;4909262;29;20397;-67
2021/08/29 07:58:45;;;;;;;3.22;2.92;;;18.00;99.90;;;;;;4892247;29;20445;-67
2021/08/29 08:01:14;;;;;;;3.27;2.87;;;18.20;99.90;;;;;;4875820;29;20899;-67
2021/08/29 08:03:39;;;;;;;2.95;2.75;;;18.30;99.90;;;;;;4879560;29;20414;-66
2021/08/29 08:06:34;;;;;;;3.85;3.20;;;18.40;99.90;;;;;;4917590;29;20800;-66
2021/08/29 08:09:28;;;;;;;3.00;2.72;;;18.50;99.90;;;;;;4904433;29;21182;-66
2021/08/29 08:12:29;;;;;;;2.95;2.67;;;18.70;99.90;;;;;;4926041;29;20439;-68
2021/08/29 08:14:55;;;;;;;2.63;2.42;;;19.00;99.90;;;;;;4894710;29;20491;-66
2021/08/29 08:17:21;;;;;;;2.67;2.20;;;19.10;99.90;;;;;;4910060;29;20487;-66
2021/08/29 08:19:47;;;;;;;1.90;1.80;;;19.30;99.90;;;;;;4898516;29;20416;-66
2021/08/29 08:22:12;;;;;;;2.10;2.00;;;19.40;99.90;;;;;;4894756;29;20981;-66
2021/08/29 08:24:57;;;;;;;1.80;1.70;;;19.40;99.90;;;;;;4899723;29;20941;-66
2021/08/29 08:27:41;;;;;;;1.60;1.50;;;19.50;99.90;;;;;;4907322;29;20443;-66
2021/08/29 08:30:25;;;;;;;1.85;1.60;;;19.60;99.90;;;;;;4892815;29;20401;-66
2021/08/29 08:33:09;;;;;;;1.45;1.40;;;19.70;99.90;;;;;;4909410;29;20420;-66
2021/08/29 08:35:57;;;;;;;1.70;1.60;;;19.90;99.90;;;;;;4896869;29;20409;-66
2021/08/29 08:38:41;;;;;;;1.75;1.65;;;19.90;99.90;;;;;;4885918;29;20530;-66
2021/08/29 08:41:28;;;;;;;1.85;1.75;;;19.90;99.90;;;;;;4878503;29;20496;-65
2021/08/29 08:44:13;;;;;;;1.52;1.42;;;19.80;99.90;;;;;;4892027;29;20896;-66
2021/08/29 08:46:58;;;;;;;1.40;1.30;;;19.70;99.90;;;;;;4918271;29;20405;-65
2021/08/29 08:49:42;;;;;;;3.83;3.30;;;19.80;99.90;;;;;;4897246;29;20406;-66
2021/08/29 08:52:28;;;;;;;2.55;2.35;;;20.00;99.90;;;;;;4898463;29;20391;-66
2021/08/29 08:55:12;;;;;;;2.05;1.85;;;20.00;99.90;;;;;;4919463;29;20421;-66
2021/08/29 08:58:16;;;;;;;1.50;1.30;;;20.00;99.90;;;;;;4888280;29;20406;-65
2021/08/29 09:01:03;;;;;;;1.67;1.58;;;20.00;99.90;;;;;;4896055;29;20496;-66
2021/08/29 09:03:55;;;;;;;1.70;1.60;;;20.00;99.90;;;;;;4888208;29;20444;-67
2021/08/29 09:06:24;;;;;;;1.73;1.63;;;20.20;99.90;;;;;;4878581;29;20414;-67
2021/08/29 09:08:50;;;;;;;1.70;1.60;;;20.40;99.90;;;;;;4893372;29;20414;-66
2021/08/29 09:11:15;;;;;;;2.80;1.70;;;20.50;99.90;;;;;;4897054;29;20483;-66
2021/08/29 09:13:47;;;;;;;1.88;1.77;;;20.60;99.90;;;;;;4887601;29;20412;-66
2021/08/29 09:16:14;;;;;;;2.03;1.83;;;20.80;99.90;;;;;;4895284;29;20402;-66
2021/08/29 09:19:04;;;;;;;1.60;1.50;;;20.80;99.90;;;;;;4869682;29;20419;-65
2021/08/29 09:21:48;;;;;;;1.70;1.60;;;20.90;99.90;;;;;;4829588;29;20417;-71
2021/08/29 09:24:28;;;;;;;1.80;1.70;;;20.80;99.90;;;;;;4871809;29;20466;-69
2021/08/29 09:27:04;;;;;;;1.70;1.60;;;20.70;99.90;;;;;;4894294;29;20423;-68
2021/08/29 09:29:42;;;;;;;1.60;1.50;;;20.70;99.90;;;;;;4891922;29;20417;-69
2021/08/29 09:32:09;;;;;;;1.48;1.38;;;20.80;99.90;;;;;;4896574;29;20429;-69
2021/08/29 09:34:58;;;;;;;2.03;1.37;;;20.90;99.90;;;;;;4903349;29;20466;-69
2021/08/29 09:37:25;;;;;;;1.77;1.50;;;21.10;99.90;;;;;;4903115;29;20416;-70
2021/08/29 09:40:14;;;;;;;1.25;1.25;;;21.20;99.90;;;;;;4887408;29;21690;-69
2021/08/29 09:43:06;;;;;;;2.15;1.95;;;21.30;99.90;;;;;;4881727;29;20401;-69
2021/08/29 09:45:40;;;;;;;1.90;1.80;;;21.30;99.90;;;;;;4910160;29;20420;-69
2021/08/29 09:48:25;;;;;;;1.60;1.50;;;21.30;99.90;;;;;;4912743;29;20470;-69
2021/08/29 09:51:24;;;;;;;1.33;1.23;;;21.30;99.90;;;;;;4892467;29;20416;-70
2021/08/29 09:54:00;;;;;;;1.73;1.63;;;21.30;99.90;;;;;;4880530;29;20407;-68
2021/08/29 09:56:59;;;;;;;1.70;1.60;;;21.10;99.90;;;;;;4903809;29;20411;-69
2021/08/29 09:59:47;;;;;;;1.40;1.30;;;21.30;99.90;;;;;;4904702;29;20426;-78
2021/08/29 10:02:28;;;;;;;1.35;1.25;;;21.50;99.90;;;;;;4891349;29;20468;-80
2021/08/29 10:05:16;;;;;;;1.30;1.20;;;21.50;99.90;;;;;;4901455;29;20390;-77
2021/08/29 10:07:57;;;;;;;1.67;1.48;;;21.80;99.90;;;;;;4882170;29;20417;-78
2021/08/29 10:10:25;;;;;;;1.30;1.20;;;22.10;99.90;;;;;;4863159;29;20418;-79
2021/08/29 10:12:52;;;;;;;1.58;1.48;;;22.30;99.90;;;;;;4868395;29;20406;-77
2021/08/29 10:15:19;;;;;;;1.48;1.38;;;22.50;99.90;;;;;;4880384;29;20488;-79
2021/08/29 10:18:04;;;;;;;1.60;1.50;;;22.50;99.90;;;;;;4893441;29;20435;-79
2021/08/29 10:20:50;;;;;;;1.83;1.73;;;22.60;99.90;;;;;;4918103;29;20420;-79
2021/08/29 10:23:21;;;;;;;1.60;1.50;;;22.50;99.90;;;;;;4906075;29;20413;-78
2021/08/29 10:25:48;;;;;;;1.77;1.67;;;22.60;99.90;;;;;;4900672;29;20496;-80
2021/08/29 10:28:37;;;;;;;1.50;1.30;;;22.60;99.90;;;;;;4894133;29;20416;-79
2021/08/29 10:36:45;;;;;;;1.33;1.23;;;22.80;99.90;;;;;;4896119;29;20578;-80
2021/08/29 10:39:42;;;;;;;1.33;1.15;;;23.10;99.90;;;;;;4908797;29;20447;-79
2021/08/29 10:44:01;;;;;;;1.45;1.35;;;23.30;99.90;;;;;;4779204;29;20517;-80
2021/08/29 10:47:24;;;;;;;1.30;1.20;;;23.80;99.90;;;;;;4858145;29;20419;-80
2021/08/29 10:50:31;;;;;;;1.00;1.00;;;23.90;99.90;;;;;;4824752;29;20418;-80
2021/08/29 10:52:59;;;;;;;0.82;0.82;;;23.60;99.90;;;;;;4883828;29;20394;-77
2021/08/29 10:55:31;;;;;;;0.80;0.80;;;23.50;99.90;;;;;;4900906;29;20400;-78
2021/08/29 10:58:02;;;;;;;0.70;0.70;;;23.40;99.90;;;;;;4864016;29;20985;-78
2021/08/29 11:00:28;;;;;;;0.70;0.70;;;23.40;99.90;;;;;;4876106;29;20432;-79
2021/08/29 11:03:03;;;;;;;0.73;0.73;;;23.50;99.90;;;;;;4895371;29;20405;-78
2021/08/29 11:05:52;;;;;;;1.20;0.82;;;23.50;99.90;;;;;;4887033;29;20405;-78
2021/08/29 11:08:28;;;;;;;0.93;0.93;;;23.80;99.90;;;;;;4875587;29;20427;-78
2021/08/29 11:10:55;;;;;;;1.20;1.10;;;24.10;99.90;;;;;;4865236;29;20405;-78
2021/08/29 11:13:34;;;;;;;0.90;0.90;;;24.30;99.90;;;;;;4881373;29;20444;-78
2021/08/29 11:16:07;;;;;;;1.30;1.20;;;24.60;99.90;;;;;;4881189;29;20411;-77
2021/08/29 11:19:01;;;;;;;0.90;0.90;;;24.80;99.90;;;;;;4910331;29;20482;-77
2021/08/29 11:21:53;;;;;;;0.82;0.82;;;25.20;99.90;;;;;;4913266;29;20471;-77
2021/08/29 11:25:11;;;;;;;0.80;0.80;;;25.50;99.90;;;;;;4932296;29;20902;-77
2021/08/29 11:27:48;;;;;;;0.97;0.97;;;25.80;99.90;;;;;;4892871;29;20420;-78
2021/08/29 11:30:35;;;;;;;1.10;1.00;;;25.70;99.90;;;;;;4915726;29;20411;-77
2021/08/29 11:33:07;;;;;;;1.23;1.20;;;25.60;99.90;;;;;;4914366;29;20402;-77
2021/08/29 11:35:39;;;;;;;0.95;0.95;;;25.50;99.90;;;;;;4881430;29;20417;-77
2021/08/29 11:38:24;;;;;;;0.90;0.90;;;25.50;99.90;;;;;;4904639;29;20910;-77
2021/08/29 11:40:50;;;;;;;0.98;0.93;;;25.50;99.90;;;;;;4894255;29;20429;-77
2021/08/29 11:43:17;;;;;;;0.80;0.80;;;25.40;99.90;;;;;;4904496;29;20415;-78
2021/08/29 11:45:47;;;;;;;0.82;0.82;;;25.40;99.90;;;;;;4911731;29;20403;-78
2021/08/29 11:48:30;;;;;;;0.90;0.90;;;25.40;99.90;;;;;;4898201;29;20417;-77
2021/08/29 11:50:56;;;;;;;1.10;1.10;;;25.70;99.90;;;;;;4890109;29;20409;-77
2021/08/29 11:54:05;;;;;;;1.25;1.15;;;26.00;99.90;;;;;;4896036;29;20418;-77
2021/08/29 11:56:35;;;;;;;0.90;0.90;;;26.30;99.90;;;;;;4896254;29;20464;-77
2021/08/29 11:59:03;;;;;;;0.88;0.88;;;26.60;99.90;;;;;;4891712;29;20397;-77
2021/08/29 12:01:32;;;;;;;1.13;1.13;;;26.80;99.90;;;;;;4866392;29;20400;-78
2021/08/29 12:03:59;;;;;;;1.20;1.10;;;26.80;99.90;;;;;;4901202;29;20399;-77
2021/08/29 12:06:33;;;;;;;0.95;0.95;;;26.70;99.90;;;;;;4872574;29;21255;-78
2021/08/29 12:09:24;;;;;;;1.20;1.10;;;26.50;99.90;;;;;;4901847;29;20425;-77
2021/08/29 12:12:16;;;;;;;0.93;0.93;;;26.40;99.90;;;;;;4898998;29;20403;-77
2021/08/29 12:15:00;;;;;;;0.90;0.90;;;26.70;99.90;;;;;;4916636;29;20413;-77
2021/08/29 12:17:51;;;;;;;0.88;0.88;;;27.20;99.90;;;;;;4889226;29;20391;-77
2021/08/29 12:20:18;;;;;;;0.95;0.95;;;27.60;99.90;;;;;;4909967;29;20442;-77
2021/08/29 12:23:03;;;;;;;1.00;1.00;;;27.50;99.90;;;;;;4908859;29;20415;-77
2021/08/29 12:25:29;;;;;;;0.98;0.98;;;27.40;99.90;;;;;;4901835;29;20422;-77
2021/08/29 12:28:15;;;;;;;0.95;0.95;;;27.50;99.90;;;;;;4901162;29;20574;-77
2021/08/29 12:31:00;;;;;;;0.98;0.98;;;27.70;99.90;;;;;;4902128;29;20402;-77
2021/08/29 12:33:46;;;;;;;0.85;0.85;;;27.70;99.90;;;;;;4893689;29;20489;-77
2021/08/29 12:36:33;;;;;;;0.88;0.88;;;28.00;99.90;;;;;;4898123;29;20458;-77
2021/08/29 12:39:19;;;;;;;0.90;0.90;;;27.90;99.90;;;;;;4888054;29;20409;-77
2021/08/29 12:42:21;;;;;;;0.80;0.80;;;27.80;99.90;;;;;;4905897;29;20428;-78
2021/08/29 12:45:18;;;;;;;0.87;0.87;;;27.70;99.90;;;;;;4916714;29;20494;-77
2021/08/29 12:48:04;;;;;;;0.85;0.85;;;27.00;99.90;;;;;;4896303;29;20466;-77
2021/08/29 12:50:58;;;;;;;0.75;0.75;;;26.40;99.90;;;;;;4884636;29;20996;-78
2021/08/29 12:53:44;;;;;;;0.85;0.85;;;25.80;99.90;;;;;;4895737;29;20542;-77
2021/08/29 12:56:30;;;;;;;0.93;0.85;;;25.30;99.90;;;;;;4911164;29;20404;-75
2021/08/29 12:59:25;;;;;;;2.15;1.42;;;25.20;99.90;;;;;;4912720;29;20414;-77
2021/08/29 13:02:17;;;;;;;3.92;1.00;;;24.60;99.90;;;;;;4902181;29;20396;-75
2021/08/29 13:05:03;;;;;;;0.80;0.80;;;23.90;99.90;;;;;;4894216;29;20400;-75
2021/08/29 13:07:51;;;;;;;1.30;0.80;;;23.70;99.90;;;;;;4894355;29;20496;-76
2021/08/29 13:10:37;;;;;;;0.80;0.80;;;23.40;99.90;;;;;;4900792;29;20990;-77
2021/08/29 13:13:30;;;;;;;2.75;2.50;;;23.10;99.90;;;;;;4904181;29;20415;-75
2021/08/29 13:16:16;;;;;;;4.30;3.80;;;22.80;99.90;;;;;;4902376;29;20445;-79
2021/08/29 13:19:02;;;;;;;0.80;0.80;;;22.70;99.90;;;;;;4896949;29;20411;-76
2021/08/29 13:21:56;;;;;;;0.88;0.88;;;22.50;99.90;;;;;;4910661;29;20432;-79
2021/08/29 13:24:44;;;;;;;0.88;0.88;;;22.10;99.90;;;;;;4904503;29;20401;-78
2021/08/29 13:27:30;;;;;;;1.00;1.00;;;21.80;99.90;;;;;;4911110;29;20550;-80
2021/08/29 13:30:20;;;;;;;0.63;0.63;;;21.60;99.90;;;;;;4918785;29;20471;-79
2021/08/29 13:33:17;;;;;;;0.70;0.70;;;21.40;99.90;;;;;;4888317;29;20404;-79
2021/08/29 13:36:05;;;;;;;1.15;1.05;;;21.30;99.90;;;;;;4890319;29;20401;-76